Time;durP1;ratioP1;P1;durP2;ratioP2;P2;SDS_P1;SDS_P2;PMS_P1;PMS_P2;Temp;Humidity;BMP_temperature;BMP_pressure;BME280_temperature;BME280_humidity;BME280_pressure;Samples;Min_cycle;Max_cycle;Signal;HPM_P1;HPM_P2
2021/05/27 00:05:32;;;;;;;4.40;2.60;;;21.70;47.80;;;;;;20921324;28;20052;-60
2021/05/27 00:15:33;;;;;;;4.80;2.53;;;21.60;48.10;;;;;;20921170;28;20075;-60
2021/05/27 00:25:34;;;;;;;5.53;2.22;;;21.50;48.50;;;;;;20919988;28;20103;-60
2021/05/27 00:35:36;;;;;;;5.18;2.53;;;21.40;48.60;;;;;;20919110;28;20057;-60
2021/05/27 00:45:37;;;;;;;5.13;2.50;;;21.30;49.20;;;;;;20918701;28;20041;-59
2021/05/27 00:55:38;;;;;;;4.63;2.53;;;21.20;49.70;;;;;;20917822;28;20534;-60
2021/05/27 01:05:40;;;;;;;5.43;3.15;;;21.10;50.10;;;;;;20919390;28;20045;-60
2021/05/27 01:15:41;;;;;;;7.10;3.05;;;21.00;50.70;;;;;;20916508;28;20048;-66
2021/05/27 01:25:45;;;;;;;7.85;3.13;;;20.90;51.50;;;;;;20913571;28;20107;-58
2021/05/27 01:35:47;;;;;;;6.10;3.33;;;20.90;52.20;;;;;;20914540;28;20520;-59
2021/05/27 01:45:49;;;;;;;7.85;2.97;;;20.70;52.70;;;;;;20914071;28;20485;-62
2021/05/27 01:55:51;;;;;;;7.00;2.97;;;20.70;53.40;;;;;;20913605;28;20055;-59
2021/05/27 02:05:52;;;;;;;6.00;3.05;;;20.60;53.00;;;;;;20913909;28;20406;-59
2021/05/27 02:15:53;;;;;;;6.55;2.88;;;20.40;52.90;;;;;;20912875;28;20052;-58
2021/05/27 02:25:54;;;;;;;4.90;2.47;;;20.30;53.20;;;;;;20911621;28;20440;-59
2021/05/27 02:35:56;;;;;;;8.13;3.17;;;20.10;53.60;;;;;;20911409;28;20085;-59
2021/05/27 02:45:57;;;;;;;4.40;2.50;;;20.00;53.80;;;;;;20911470;28;20049;-59
2021/05/27 02:55:58;;;;;;;4.05;2.30;;;19.80;54.10;;;;;;20910867;28;20103;-60
2021/05/27 03:05:59;;;;;;;5.90;2.70;;;19.60;54.50;;;;;;20910209;28;20045;-59
2021/05/27 03:16:02;;;;;;;5.82;2.65;;;19.50;54.80;;;;;;20909996;28;20095;-60
2021/05/27 03:26:03;;;;;;;7.18;2.58;;;19.40;55.00;;;;;;20910805;28;20056;-59
2021/05/27 03:36:04;;;;;;;3.58;2.72;;;19.40;54.70;;;;;;20914353;28;20057;-60
2021/05/27 03:46:06;;;;;;;3.88;2.25;;;19.20;54.70;;;;;;20923323;28;20049;-59
2021/05/27 03:56:07;;;;;;;4.05;2.60;;;19.10;55.10;;;;;;20921398;28;20493;-59
2021/05/27 04:16:29;;;;;;;3.80;2.50;;;18.90;55.60;;;;;;20921753;28;20049;-59
2021/05/27 04:26:30;;;;;;;4.53;2.40;;;18.90;55.70;;;;;;20920651;28;20041;-59
2021/05/27 04:36:32;;;;;;;4.50;2.90;;;18.90;55.60;;;;;;20919387;28;20064;-59
2021/05/27 04:46:33;;;;;;;4.50;2.60;;;18.80;55.70;;;;;;20918623;28;20489;-60
2021/05/27 04:56:34;;;;;;;4.68;2.50;;;18.80;55.80;;;;;;20918343;28;20057;-59
2021/05/27 05:06:35;;;;;;;3.90;2.50;;;18.70;55.80;;;;;;20918130;28;20414;-59
2021/05/27 05:16:37;;;;;;;5.80;2.28;;;18.70;56.00;;;;;;20916003;28;20052;-59
2021/05/27 05:26:38;;;;;;;5.50;2.72;;;18.70;55.90;;;;;;20915494;28;20045;-59
2021/05/27 05:36:39;;;;;;;7.78;2.88;;;18.80;55.60;;;;;;20914913;28;20437;-59
2021/05/27 05:46:40;;;;;;;5.80;3.03;;;18.80;55.40;;;;;;20913070;28;20489;-63
2021/05/27 05:56:41;;;;;;;6.63;2.78;;;18.80;55.50;;;;;;20926227;28;20486;-59
2021/05/27 06:06:43;;;;;;;8.68;2.78;;;19.10;54.90;;;;;;20910039;28;20452;-59
2021/05/27 06:16:44;;;;;;;6.00;2.92;;;19.20;54.80;;;;;;20910823;28;20512;-60
2021/05/27 06:26:46;;;;;;;8.18;3.45;;;19.20;54.70;;;;;;20911797;28;20151;-59
2021/05/27 06:36:47;;;;;;;12.32;4.47;;;19.20;54.70;;;;;;20910026;28;20421;-59
2021/05/27 06:46:48;;;;;;;7.68;3.00;;;19.40;54.70;;;;;;20909637;28;20382;-59
2021/05/27 06:56:52;;;;;;;6.43;3.15;;;19.60;54.20;;;;;;20908283;28;20410;-59
2021/05/27 07:06:53;;;;;;;8.48;3.50;;;19.80;53.70;;;;;;20908776;28;20048;-59
2021/05/27 07:16:55;;;;;;;8.02;4.00;;;20.40;52.00;;;;;;20923770;28;20420;-59
2021/05/27 07:26:56;;;;;;;6.85;2.97;;;21.10;50.60;;;;;;20923724;28;20049;-59
2021/05/27 07:36:57;;;;;;;5.68;2.67;;;21.60;49.20;;;;;;20938748;28;20391;-61
2021/05/27 07:46:59;;;;;;;10.68;5.43;;;21.90;48.80;;;;;;20922915;28;20056;-60
2021/05/27 07:57:00;;;;;;;9.23;3.40;;;22.30;48.20;;;;;;20921688;28;20053;-60
2021/05/27 08:07:02;;;;;;;8.60;3.20;;;22.80;47.00;;;;;;20921617;28;20056;-59
2021/05/27 08:17:03;;;;;;;6.40;3.28;;;23.10;46.60;;;;;;20921064;28;20053;-60
2021/05/27 08:27:05;;;;;;;13.18;3.28;;;23.40;45.90;;;;;;20919895;28;20395;-61
2021/05/27 08:37:07;;;;;;;9.93;3.90;;;23.60;45.60;;;;;;20918994;28;20100;-60
2021/05/27 08:47:11;;;;;;;6.60;2.97;;;23.70;45.10;;;;;;20875297;28;20172;-59
2021/05/27 08:57:13;;;;;;;6.95;2.60;;;24.10;44.50;;;;;;20853045;28;20096;-60
2021/05/27 09:07:14;;;;;;;5.10;3.03;;;24.30;44.10;;;;;;20914825;28;20462;-64
2021/05/27 09:17:15;;;;;;;6.57;2.72;;;24.60;43.20;;;;;;20916178;28;20057;-64
2021/05/27 09:27:16;;;;;;;8.63;3.30;;;25.10;42.40;;;;;;20915734;28;20068;-57
2021/05/27 09:37:31;;;;;;;10.47;3.60;;;25.20;42.00;;;;;;20885067;28;20093;-58
2021/05/27 09:47:34;;;;;;;6.20;3.20;;;25.40;41.60;;;;;;20909700;28;20049;-57
2021/05/27 09:57:37;;;;;;;8.88;2.80;;;25.60;40.70;;;;;;20835390;28;20126;-60
2021/05/27 10:07:52;;;;;;;7.45;3.50;;;25.60;40.70;;;;;;20900445;28;20045;-60
2021/05/27 10:17:57;;;;;;;12.13;3.90;;;25.60;40.80;;;;;;20913473;28;20106;-64
2021/05/27 10:28:03;;;;;;;11.80;3.13;;;25.80;40.20;;;;;;20911933;28;20048;-62
2021/05/27 10:38:05;;;;;;;9.00;3.15;;;26.00;39.60;;;;;;20910193;28;20072;-61
2021/05/27 10:48:15;;;;;;;9.57;3.00;;;25.80;39.70;;;;;;20870096;28;20103;-62
2021/05/27 10:58:16;;;;;;;8.73;3.42;;;26.10;39.70;;;;;;20907477;28;20053;-64
2021/05/27 11:08:20;;;;;;;6.03;3.15;;;26.20;39.60;;;;;;20925033;28;20053;-60
2021/05/27 11:18:32;;;;;;;9.00;3.70;;;26.20;39.00;;;;;;20924780;28;20421;-62
2021/05/27 11:28:33;;;;;;;8.13;3.13;;;26.30;39.80;;;;;;20925258;28;20052;-61
2021/05/27 11:38:36;;;;;;;7.07;3.10;;;26.20;39.70;;;;;;20866872;28;20062;-60
2021/05/27 11:48:42;;;;;;;5.43;2.80;;;26.30;39.30;;;;;;20850674;28;20053;-60
2021/05/27 11:58:44;;;;;;;10.80;8.77;;;26.40;39.20;;;;;;20850830;28;20049;-63
2021/05/27 12:08:45;;;;;;;8.43;3.88;;;26.40;39.20;;;;;;20840099;28;20060;-60
2021/05/27 12:18:59;;;;;;;8.30;3.00;;;26.50;39.00;;;;;;20852526;28;20056;-63
2021/05/27 12:29:01;;;;;;;9.77;5.50;;;26.90;38.00;;;;;;20923559;28;20036;-61
2021/05/27 12:39:02;;;;;;;9.10;2.97;;;27.00;36.70;;;;;;20935175;28;20452;-61
2021/05/27 12:49:03;;;;;;;5.90;2.75;;;27.00;36.30;;;;;;20919587;28;20509;-63
2021/05/27 12:59:11;;;;;;;5.90;2.92;;;27.10;36.30;;;;;;20934040;28;20064;-63
2021/05/27 13:09:15;;;;;;;8.02;2.70;;;27.40;35.80;;;;;;20917587;28;20052;-64
2021/05/27 13:19:26;;;;;;;5.25;3.10;;;27.60;35.50;;;;;;20917428;28;20049;-63
2021/05/27 13:29:29;;;;;;;8.03;2.90;;;27.70;35.50;;;;;;20915164;28;20493;-62
2021/05/27 13:39:40;;;;;;;11.63;4.22;;;27.80;35.00;;;;;;21067927;27;20481;-65
2021/05/27 13:49:42;;;;;;;34.65;12.60;;;28.10;34.30;;;;;;21065608;28;20059;-64
2021/05/27 13:59:43;;;;;;;5.90;3.10;;;28.20;33.30;;;;;;21065752;28;20051;-64
2021/05/27 14:09:44;;;;;;;5.95;2.70;;;28.20;32.80;;;;;;21064106;28;20057;-64
2021/05/27 14:19:46;;;;;;;6.47;3.25;;;28.20;32.00;;;;;;21064691;28;20048;-63
2021/05/27 14:29:47;;;;;;;9.80;3.70;;;28.20;32.10;;;;;;21063477;28;20040;-64
2021/05/27 14:39:49;;;;;;;6.85;2.83;;;28.20;31.50;;;;;;21063569;28;20507;-64
2021/05/27 14:49:50;;;;;;;6.53;2.88;;;28.30;30.70;;;;;;21011888;28;20086;-65
2021/05/27 14:59:51;;;;;;;5.60;2.50;;;28.30;30.20;;;;;;21005864;28;20059;-63
2021/05/27 15:09:53;;;;;;;5.88;2.30;;;28.20;30.20;;;;;;21004877;28;20055;-66
2021/05/27 15:19:54;;;;;;;5.45;2.67;;;28.10;30.50;;;;;;21004211;28;20060;-64
2021/05/27 15:29:56;;;;;;;6.78;4.88;;;28.10;30.70;;;;;;21002445;28;20052;-66
2021/05/27 15:39:57;;;;;;;6.82;2.85;;;28.20;31.50;;;;;;21001345;28;20074;-67
2021/05/27 15:49:59;;;;;;;7.20;3.50;;;28.20;31.80;;;;;;20999503;28;20059;-63
2021/05/27 16:00:00;;;;;;;5.25;3.10;;;28.10;32.00;;;;;;20998775;28;20048;-65
2021/05/27 16:10:03;;;;;;;7.10;2.45;;;28.10;32.10;;;;;;20997931;28;20044;-65
2021/05/27 16:20:05;;;;;;;6.68;2.47;;;28.10;31.20;;;;;;20996986;28;20063;-65
2021/05/27 16:30:07;;;;;;;5.68;2.10;;;28.00;30.90;;;;;;20996352;28;20534;-65
2021/05/27 16:40:09;;;;;;;3.90;2.45;;;28.00;30.80;;;;;;20995619;28;20044;-65
2021/05/27 16:50:11;;;;;;;6.70;2.80;;;28.00;30.70;;;;;;20993899;28;20516;-65
2021/05/27 17:00:13;;;;;;;9.88;3.20;;;27.80;30.80;;;;;;20994379;28;20485;-63
2021/05/27 17:10:15;;;;;;;6.22;2.60;;;27.60;30.80;;;;;;20993920;28;20366;-64
2021/05/27 17:20:18;;;;;;;4.53;2.50;;;27.60;31.10;;;;;;20998059;28;20048;-65
2021/05/27 17:30:21;;;;;;;6.53;2.92;;;27.60;31.20;;;;;;20994495;28;20044;-65
2021/05/27 17:40:22;;;;;;;11.18;4.43;;;27.30;31.50;;;;;;20993251;28;20054;-63
2021/05/27 17:50:24;;;;;;;6.78;3.22;;;27.20;31.70;;;;;;20993163;28;20055;-61
2021/05/27 18:00:29;;;;;;;7.57;2.90;;;27.20;31.70;;;;;;20992692;28;20056;-67
2021/05/27 18:10:33;;;;;;;6.63;3.28;;;27.20;32.00;;;;;;20991551;28;20084;-66
2021/05/27 18:20:36;;;;;;;6.68;3.10;;;27.10;32.40;;;;;;20996593;28;20049;-65
2021/05/27 18:30:37;;;;;;;4.90;3.03;;;27.10;32.70;;;;;;21008010;28;20084;-69
2021/05/27 18:40:40;;;;;;;6.47;3.63;;;27.00;32.00;;;;;;21008333;28;20044;-68
2021/05/27 18:50:44;;;;;;;10.52;4.00;;;27.00;31.80;;;;;;20996191;28;20059;-70
2021/05/27 19:00:46;;;;;;;8.05;3.65;;;26.90;32.20;;;;;;21006317;28;20044;-67
2021/05/27 19:10:48;;;;;;;6.25;3.72;;;26.70;32.60;;;;;;21004042;28;20048;-69
2021/05/27 19:20:49;;;;;;;8.88;4.18;;;26.50;33.60;;;;;;21005026;28;20531;-70
2021/05/27 19:30:50;;;;;;;7.80;3.78;;;26.50;34.20;;;;;;21003386;28;20048;-70
2021/05/27 19:40:52;;;;;;;;;;;26.20;34.80;;;;;;21002303;28;20501;-71
2021/05/27 19:50:54;;;;;;;13.52;5.10;;;26.10;35.20;;;;;;21000064;28;19966;-69
2021/05/27 20:00:55;;;;;;;16.45;5.03;;;26.00;35.50;;;;;;20999640;28;20497;-66
2021/05/27 20:10:56;;;;;;;6.80;4.47;;;25.90;35.90;;;;;;20999608;28;20060;-65
2021/05/27 20:20:58;;;;;;;9.75;4.43;;;25.80;36.10;;;;;;20999224;28;20044;-65
2021/05/27 20:31:00;;;;;;;10.57;5.22;;;25.70;36.50;;;;;;20997615;28;20055;-66
2021/05/27 20:41:01;;;;;;;;;;;25.60;36.90;;;;;;20998396;28;20053;-65
2021/05/27 20:51:02;;;;;;;10.82;3.72;;;25.40;37.20;;;;;;21002255;28;19921;-65
2021/05/27 21:01:04;;;;;;;8.27;4.17;;;25.30;37.20;;;;;;20995329;28;20040;-65
2021/05/27 21:11:05;;;;;;;10.33;3.67;;;25.20;37.70;;;;;;20996170;28;20053;-66
2021/05/27 21:21:06;;;;;;;8.80;4.23;;;25.10;37.70;;;;;;20995872;28;20516;-65
2021/05/27 21:31:08;;;;;;;6.43;3.10;;;25.00;38.10;;;;;;20994716;28;20098;-66
2021/05/27 21:41:09;;;;;;;;;;;24.90;38.10;;;;;;20994906;28;20045;-66
2021/05/27 21:51:11;;;;;;;7.10;3.33;;;24.60;38.30;;;;;;20992927;28;19921;-65
2021/05/27 22:01:12;;;;;;;7.47;3.37;;;24.50;38.80;;;;;;21008829;28;20049;-66
2021/05/27 22:11:13;;;;;;;6.40;2.97;;;24.40;39.00;;;;;;21008566;28;20366;-62
2021/05/27 22:21:15;;;;;;;10.57;3.00;;;24.30;39.10;;;;;;21008341;28;20193;-67
2021/05/27 22:31:18;;;;;;;6.90;2.50;;;24.20;39.30;;;;;;21007867;28;20059;-66
2021/05/27 22:41:20;;;;;;;7.13;2.90;;;24.10;39.60;;;;;;21007005;28;20051;-65
2021/05/27 22:51:21;;;;;;;3.97;2.20;;;24.00;39.70;;;;;;21005758;28;20106;-65
2021/05/27 23:01:22;;;;;;;4.70;2.10;;;23.90;39.90;;;;;;21006186;28;20052;-64
2021/05/27 23:11:23;;;;;;;4.25;2.03;;;23.80;40.10;;;;;;21004021;28;20056;-65
2021/05/27 23:21:25;;;;;;;6.00;2.63;;;23.60;40.40;;;;;;21003836;28;20083;-65
2021/05/27 23:31:26;;;;;;;8.23;2.70;;;23.50;41.00;;;;;;21001788;28;20509;-65
2021/05/27 23:41:27;;;;;;;5.05;2.20;;;23.40;41.20;;;;;;21001971;28;20495;-65
2021/05/27 23:51:28;;;;;;;6.00;2.50;;;23.20;43.50;;;;;;21002174;28;20489;-65
